createdAt,value
2023-04-18T00:01:10.062Z,12.07
2023-04-18T00:02:44.432Z,13.15
2023-04-18T00:04:18.986Z,10.25
2023-04-18T00:05:52.277Z,14.23
2023-04-18T00:07:24.465Z,12.45
2023-04-18T00:08:56.831Z,12.23
2023-04-18T00:10:28.983Z,13.00
2023-04-18T00:12:03.467Z,11.05
2023-04-18T00:13:35.898Z,14.32
2023-04-18T00:15:09.408Z,11.82
2023-04-18T00:18:16.538Z,11.88
2023-04-18T00:19:48.697Z,12.82
2023-04-18T00:21:23.700Z,13.38
2023-04-18T00:22:56.506Z,11.95
2023-04-18T00:24:28.627Z,11.25
2023-04-18T00:26:03.254Z,16.83
2023-04-18T00:27:35.403Z,12.98
2023-04-18T00:29:07.504Z,12.07
2023-04-18T00:30:39.614Z,13.27
2023-04-18T00:32:11.756Z,15.10
2023-04-18T00:33:43.884Z,12.05
2023-04-18T00:35:16.272Z,13.70
2023-04-18T00:36:48.359Z,14.73
2023-04-18T00:38:20.569Z,14.32
2023-04-18T00:39:54.362Z,12.95
2023-04-18T00:41:28.620Z,13.52
2023-04-18T00:43:01.124Z,19.50
2023-04-18T00:44:33.313Z,13.15
2023-04-18T00:46:05.732Z,13.70
2023-04-18T00:47:37.976Z,13.50
2023-04-18T00:49:10.365Z,11.68
2023-04-18T00:50:42.755Z,12.90
2023-04-18T00:52:15.224Z,15.48
2023-04-18T00:53:47.530Z,15.33
2023-04-18T00:55:19.764Z,12.32
2023-04-18T00:56:51.996Z,15.00
2023-04-18T00:58:24.869Z,13.55
2023-04-18T00:59:57.169Z,13.32
2023-04-18T01:01:29.570Z,14.75
2023-04-18T01:03:01.969Z,13.85
2023-04-18T01:04:34.384Z,14.82
2023-04-18T01:06:06.926Z,14.85
2023-04-18T01:07:41.946Z,13.85
2023-04-18T01:09:14.568Z,13.02
2023-04-18T01:10:47.258Z,13.68
2023-04-18T01:12:19.521Z,13.95
2023-04-18T01:14:02.088Z,13.52
2023-04-18T01:15:34.316Z,13.05
2023-04-18T01:17:08.475Z,13.60
2023-04-18T01:18:40.645Z,13.05
2023-04-18T01:20:14.157Z,14.13
2023-04-18T01:21:46.560Z,13.18
2023-04-18T01:23:19.716Z,13.43
2023-04-18T01:24:51.797Z,12.07
2023-04-18T01:26:23.987Z,15.20
2023-04-18T01:27:59.209Z,12.88
2023-04-18T01:29:31.408Z,13.05
2023-04-18T01:31:03.644Z,13.93
2023-04-18T01:32:35.971Z,15.27
2023-04-18T01:34:08.877Z,15.63
2023-04-18T01:35:41.337Z,14.35
2023-04-18T01:37:13.489Z,15.20
2023-04-18T01:38:45.866Z,14.05
2023-04-18T01:40:20.698Z,14.95
2023-04-18T01:41:52.814Z,14.38
2023-04-18T01:43:24.946Z,12.93
2023-04-18T01:44:57.090Z,15.35
2023-04-18T01:46:29.432Z,14.15
2023-04-18T01:48:01.561Z,13.90
2023-04-18T01:49:33.759Z,13.63
2023-04-18T01:51:06.300Z,15.43
2023-04-18T01:52:38.719Z,13.03
2023-04-18T01:54:10.948Z,13.70
2023-04-18T01:55:43.074Z,13.40
2023-04-18T01:57:15.104Z,13.43
2023-04-18T01:58:47.337Z,14.48
2023-04-18T02:00:20.087Z,14.43
2023-04-18T02:01:52.991Z,13.20
2023-04-18T02:03:25.903Z,13.50
2023-04-18T02:04:58.264Z,13.68
2023-04-18T02:06:30.417Z,12.68
2023-04-18T02:08:02.585Z,12.93
2023-04-18T02:09:34.757Z,17.08
2023-04-18T02:11:06.831Z,14.40
2023-04-18T02:12:38.864Z,14.88
2023-04-18T02:14:11.093Z,15.73
2023-04-18T02:15:45.644Z,10.45
2023-04-18T02:17:17.826Z,12.55
2023-04-18T02:18:53.082Z,11.40
2023-04-18T02:20:26.612Z,10.77
2023-04-18T02:21:58.853Z,13.25
2023-04-18T02:23:30.955Z,11.90
2023-04-18T02:25:03.147Z,13.23
2023-04-18T02:26:35.266Z,13.43
2023-04-18T02:28:07.649Z,13.70
2023-04-18T02:29:39.874Z,15.68
2023-04-18T02:31:15.240Z,12.52
2023-04-18T02:32:47.549Z,12.43
2023-04-18T02:34:20.041Z,12.65
2023-04-18T02:35:52.216Z,12.55
2023-04-18T02:37:24.304Z,13.43
2023-04-18T02:38:56.506Z,15.10
2023-04-18T02:40:28.721Z,11.93
2023-04-18T02:42:02.011Z,11.50
2023-04-18T02:43:34.107Z,12.88
2023-04-18T02:45:07.448Z,12.57
2023-04-18T02:46:39.544Z,12.07
2023-04-18T02:48:11.632Z,13.75
2023-04-18T02:49:43.703Z,13.85
2023-04-18T02:51:16.070Z,11.68
2023-04-18T02:52:48.196Z,14.45
2023-04-18T02:54:20.393Z,12.40
2023-04-18T02:55:52.502Z,11.95
2023-04-18T02:57:24.553Z,12.30
2023-04-18T02:58:56.892Z,11.82
2023-04-18T03:00:29.137Z,15.65
2023-04-18T03:02:01.346Z,13.23
2023-04-18T03:03:33.610Z,13.35
2023-04-18T03:05:07.517Z,12.48
2023-04-18T03:06:39.829Z,12.40
2023-04-18T03:08:12.091Z,13.38
2023-04-18T03:09:44.238Z,11.95
2023-04-18T03:11:16.406Z,13.35
2023-04-18T03:12:48.697Z,12.50
2023-04-18T03:14:20.886Z,12.10
2023-04-18T03:15:53.119Z,12.50
2023-04-18T03:17:25.437Z,13.20
2023-04-18T03:18:57.626Z,13.65
2023-04-18T03:20:29.786Z,13.90
2023-04-18T03:22:02.044Z,12.63
2023-04-18T03:23:34.174Z,13.35
2023-04-18T03:25:07.480Z,13.40
2023-04-18T03:26:39.728Z,12.63
2023-04-18T03:28:11.899Z,11.65
2023-04-18T03:29:44.174Z,13.48
2023-04-18T03:31:16.459Z,13.15
2023-04-18T03:32:49.433Z,12.23
2023-04-18T03:34:21.620Z,13.70
2023-04-18T03:35:53.705Z,12.73
2023-04-18T03:37:26.565Z,10.50
2023-04-18T03:38:58.739Z,11.43
2023-04-18T03:40:30.912Z,9.82
2023-04-18T03:42:03.285Z,11.32
2023-04-18T03:43:35.425Z,11.35
2023-04-18T03:45:08.177Z,10.18
2023-04-18T03:46:40.742Z,13.93
2023-04-18T03:48:13.269Z,14.23
2023-04-18T03:49:45.436Z,11.48
2023-04-18T03:51:17.678Z,11.43
2023-04-18T03:52:49.854Z,11.45
2023-04-18T03:54:21.998Z,12.57
2023-04-18T03:55:54.198Z,12.63
2023-04-18T03:57:26.774Z,12.30
2023-04-18T03:58:59.339Z,9.82
2023-04-18T04:00:31.682Z,10.85
2023-04-18T04:02:04.036Z,10.00
2023-04-18T04:03:36.413Z,10.57
2023-04-18T04:05:09.431Z,13.45
2023-04-18T04:06:41.933Z,10.82
2023-04-18T04:08:15.518Z,10.30
2023-04-18T04:09:47.622Z,10.43
2023-04-18T04:11:19.819Z,9.43
2023-04-18T04:12:52.046Z,11.07
2023-04-18T04:14:25.030Z,11.23
2023-04-18T04:15:57.616Z,12.77
2023-04-18T04:17:29.757Z,12.05
2023-04-18T04:19:02.236Z,11.55
2023-04-18T04:20:34.492Z,12.10
2023-04-18T04:22:06.617Z,11.00
2023-04-18T04:23:38.778Z,12.93
2023-04-18T04:25:11.081Z,14.65
2023-04-18T04:26:43.662Z,14.65
2023-04-18T04:28:16.392Z,13.23
2023-04-18T04:29:49.606Z,17.23
2023-04-18T04:31:22.691Z,11.80
2023-04-18T04:32:56.662Z,12.18
2023-04-18T04:34:28.888Z,14.23
2023-04-18T04:36:01.667Z,11.38
2023-04-18T04:37:33.976Z,11.88
2023-04-18T04:39:06.091Z,11.70
2023-04-18T04:40:43.223Z,11.75
2023-04-18T04:42:15.721Z,14.10
2023-04-18T04:43:48.276Z,15.63
2023-04-18T04:45:21.008Z,12.63
2023-04-18T04:46:54.857Z,11.48
2023-04-18T04:48:27.400Z,11.40
2023-04-18T04:49:59.525Z,11.67
2023-04-18T04:51:32.171Z,22.95
2023-04-18T04:53:05.404Z,17.08
2023-04-18T04:54:37.604Z,11.32
2023-04-18T04:56:10.063Z,10.90
2023-04-18T04:57:42.230Z,12.40
2023-04-18T04:59:14.659Z,11.30
2023-04-18T05:00:47.008Z,11.57
2023-04-18T05:02:19.294Z,15.20
2023-04-18T05:03:52.926Z,10.65
2023-04-18T05:05:25.235Z,12.40
2023-04-18T05:06:57.903Z,11.32
2023-04-18T05:08:30.003Z,11.05
2023-04-18T05:10:02.144Z,9.98
2023-04-18T05:11:34.225Z,12.68
2023-04-18T05:13:06.530Z,11.57
2023-04-18T05:14:38.676Z,10.82
2023-04-18T05:16:10.853Z,10.77
2023-04-18T05:17:43.397Z,13.02
2023-04-18T05:19:15.769Z,11.60
2023-04-18T05:20:47.878Z,12.07
2023-04-18T05:22:19.981Z,10.68
2023-04-18T05:23:52.195Z,10.65
2023-04-18T05:25:24.484Z,11.18
2023-04-18T05:26:57.360Z,13.50
2023-04-18T05:28:29.567Z,11.55
2023-04-18T05:30:01.743Z,11.60
2023-04-18T05:31:34.109Z,10.90
2023-04-18T05:33:06.523Z,10.30
2023-04-18T05:34:38.903Z,11.77
2023-04-18T05:36:11.308Z,10.05
2023-04-18T05:37:43.444Z,13.02
2023-04-18T05:39:15.571Z,11.68
2023-04-18T05:40:47.851Z,13.30
2023-04-18T05:42:20.041Z,12.02
2023-04-18T05:44:04.279Z,13.65
2023-04-18T05:45:37.335Z,12.60
2023-04-18T05:47:09.476Z,14.27
2023-04-18T05:48:41.717Z,11.55
2023-04-18T05:50:13.918Z,13.63
2023-04-18T05:51:46.779Z,14.90
2023-04-18T05:53:18.926Z,32.47
2023-04-18T05:54:51.310Z,21.10
2023-04-18T05:56:23.435Z,16.13
2023-04-18T05:57:55.731Z,12.43
2023-04-18T05:59:27.892Z,11.15
2023-04-18T06:00:59.996Z,12.15
2023-04-18T06:02:32.562Z,12.93
2023-04-18T06:04:04.995Z,22.88
2023-04-18T06:05:37.458Z,17.98
2023-04-18T06:07:09.910Z,11.40
2023-04-18T06:08:42.223Z,13.02
2023-04-18T06:10:14.697Z,12.30
2023-04-18T06:11:46.948Z,12.10
2023-04-18T06:13:19.068Z,13.40
2023-04-18T06:14:51.540Z,12.35
2023-04-18T06:16:23.819Z,14.23
2023-04-18T06:17:56.118Z,12.10
2023-04-18T06:19:28.306Z,15.18
2023-04-18T06:21:00.760Z,12.68
2023-04-18T06:22:34.523Z,13.10
2023-04-18T06:24:07.243Z,12.95
2023-04-18T06:25:42.143Z,15.57
2023-04-18T06:27:27.876Z,15.45
2023-04-18T06:29:03.152Z,12.30
2023-04-18T06:30:35.491Z,15.07
2023-04-18T06:32:07.758Z,13.63
2023-04-18T06:33:39.930Z,13.95
2023-04-18T06:35:12.219Z,12.88
2023-04-18T06:36:44.491Z,13.38
2023-04-18T06:38:16.638Z,12.05
2023-04-18T06:39:48.742Z,12.07
2023-04-18T06:41:20.886Z,13.45
2023-04-18T06:42:53.226Z,12.63
2023-04-18T06:44:25.390Z,12.80
2023-04-18T06:45:57.725Z,11.68
2023-04-18T06:47:30.421Z,11.43
2023-04-18T06:49:02.588Z,12.50
2023-04-18T06:50:34.757Z,13.25
2023-04-18T06:52:07.172Z,12.18
2023-04-18T06:53:39.395Z,12.88
2023-04-18T06:55:14.616Z,13.40
2023-04-18T06:56:46.764Z,16.08
2023-04-18T06:58:18.916Z,17.77
2023-04-18T06:59:51.058Z,15.93
2023-04-18T07:01:23.282Z,13.18
2023-04-18T07:02:55.587Z,11.85
2023-04-18T07:04:27.962Z,14.10
2023-04-18T07:06:00.148Z,13.18
2023-04-18T07:07:33.555Z,12.48
2023-04-18T07:10:37.699Z,11.13
2023-04-18T07:12:09.847Z,11.73
2023-04-18T07:13:42.027Z,11.30
2023-04-18T07:15:14.369Z,12.18
2023-04-18T07:16:47.554Z,12.02
2023-04-18T07:18:30.222Z,12.93
2023-04-18T07:20:10.011Z,10.65
2023-04-18T07:21:45.224Z,10.63
2023-04-18T07:23:17.282Z,12.13
2023-04-18T07:24:49.506Z,11.30
2023-04-18T07:26:21.696Z,9.73
2023-04-18T07:27:53.804Z,9.27
2023-04-18T07:29:25.895Z,9.60
2023-04-18T07:30:58.417Z,10.75
2023-04-18T07:32:30.751Z,12.20
2023-04-18T07:34:02.890Z,10.70
2023-04-18T07:35:36.423Z,10.38
2023-04-18T07:37:08.598Z,10.40
2023-04-18T07:38:40.780Z,9.90
2023-04-18T07:40:13.462Z,8.73
2023-04-18T07:41:45.565Z,10.48
2023-04-18T07:43:18.401Z,10.23
2023-04-18T07:44:57.425Z,9.90
2023-04-18T07:46:29.761Z,9.38
2023-04-18T07:48:02.947Z,9.68
2023-04-18T07:49:35.019Z,10.52
2023-04-18T07:51:07.091Z,10.07
2023-04-18T07:52:39.584Z,12.60
2023-04-18T07:54:11.745Z,9.57
2023-04-18T07:55:43.999Z,11.48
2023-04-18T07:57:16.192Z,8.50
2023-04-18T07:58:48.323Z,9.25
2023-04-18T08:00:20.688Z,9.73
2023-04-18T08:01:52.906Z,13.35
2023-04-18T08:03:25.343Z,9.38
2023-04-18T08:04:57.777Z,8.10
2023-04-18T08:06:30.205Z,14.60
2023-04-18T08:08:02.404Z,10.63
2023-04-18T08:09:34.922Z,11.70
2023-04-18T08:11:07.021Z,8.77
2023-04-18T08:12:39.367Z,11.25
2023-04-18T08:14:11.995Z,8.65
2023-04-18T08:15:44.118Z,8.85
2023-04-18T08:17:16.348Z,8.57
2023-04-18T08:18:48.586Z,10.07
2023-04-18T08:20:21.149Z,9.85
2023-04-18T08:21:53.317Z,13.80
2023-04-18T08:23:25.652Z,10.70
2023-04-18T08:25:04.505Z,9.30
2023-04-18T08:26:37.781Z,8.75
2023-04-18T08:28:10.132Z,9.23
2023-04-18T08:29:42.177Z,7.82
2023-04-18T08:31:16.785Z,11.45
2023-04-18T08:32:50.017Z,8.68
2023-04-18T08:34:22.538Z,9.00
2023-04-18T08:35:54.797Z,8.50
2023-04-18T08:37:28.346Z,8.85
2023-04-18T08:39:00.508Z,8.20
2023-04-18T08:40:32.716Z,9.18
2023-04-18T08:42:06.819Z,9.05
2023-04-18T08:43:39.038Z,7.93
2023-04-18T08:45:14.336Z,6.20
2023-04-18T08:46:46.809Z,10.27
2023-04-18T08:48:19.279Z,8.53
2023-04-18T08:49:52.633Z,10.70
2023-04-18T08:51:25.058Z,9.20
2023-04-18T08:52:57.214Z,9.50
2023-04-18T08:54:30.989Z,8.35
2023-04-18T08:56:03.317Z,9.38
2023-04-18T08:59:15.156Z,9.40
2023-04-18T09:00:51.472Z,9.52
2023-04-18T09:02:47.596Z,9.32
2023-04-18T09:04:38.370Z,9.57
2023-04-18T09:06:16.526Z,9.02
2023-04-18T09:07:50.535Z,9.57
2023-04-18T09:09:27.787Z,8.27
2023-04-18T09:11:30.419Z,8.85
2023-04-18T09:13:06.305Z,7.53
2023-04-18T09:14:43.191Z,6.18
2023-04-18T09:16:15.355Z,14.60
2023-04-18T09:17:56.587Z,12.02
2023-04-18T09:19:30.412Z,8.20
2023-04-18T09:21:19.846Z,10.35
2023-04-18T09:22:54.652Z,12.63
2023-04-18T09:24:28.868Z,10.85
2023-04-18T09:26:00.997Z,13.77
2023-04-18T09:27:35.201Z,11.77
2023-04-18T09:29:07.456Z,10.95
2023-04-18T09:30:41.161Z,11.00
2023-04-18T09:32:27.487Z,13.32
2023-04-18T09:34:01.155Z,13.70
2023-04-18T09:35:33.815Z,11.82
2023-04-18T09:37:13.846Z,9.10
2023-04-18T09:38:46.962Z,12.90
2023-04-18T09:40:19.898Z,12.07
2023-04-18T09:41:58.959Z,12.90
2023-04-18T09:43:31.040Z,12.13
2023-04-18T09:45:06.798Z,14.57
2023-04-18T09:46:39.069Z,9.85
2023-04-18T09:48:11.436Z,12.30
2023-04-18T09:49:43.581Z,8.60
2023-04-18T09:51:16.933Z,12.93
2023-04-18T09:54:24.574Z,9.27
2023-04-18T09:55:57.812Z,8.63
2023-04-18T09:59:10.916Z,8.23
2023-04-18T10:00:45.005Z,9.57
2023-04-18T10:02:22.491Z,14.07
2023-04-18T10:03:56.707Z,28.40
2023-04-18T10:05:32.518Z,9.00
2023-04-18T10:07:04.954Z,8.82
2023-04-18T10:08:37.100Z,9.63
2023-04-18T10:10:09.686Z,10.10
2023-04-18T10:11:41.969Z,9.57
2023-04-18T10:13:14.706Z,10.65
2023-04-18T10:14:46.982Z,13.68
2023-04-18T10:16:20.835Z,12.05
2023-04-18T10:19:32.334Z,10.98
2023-04-18T10:21:06.145Z,11.50
2023-04-18T10:22:40.606Z,9.93
2023-04-18T10:24:53.610Z,10.18
2023-04-18T10:26:47.314Z,11.88
2023-04-18T10:28:21.414Z,10.00
2023-04-18T10:29:54.629Z,10.68
2023-04-18T10:31:28.438Z,11.05
2023-04-18T10:33:30.517Z,11.48
2023-04-18T10:35:05.252Z,10.98
2023-04-18T10:36:37.392Z,9.05
2023-04-18T10:38:17.601Z,10.48
2023-04-18T10:39:57.632Z,12.55
2023-04-18T10:41:33.657Z,10.80
2023-04-18T10:43:07.270Z,10.85
2023-04-18T10:44:39.452Z,10.27
2023-04-18T10:46:27.998Z,10.15
2023-04-18T10:48:26.363Z,9.30
2023-04-18T10:49:59.513Z,10.15
2023-04-18T10:51:31.969Z,12.60
2023-04-18T10:53:04.049Z,12.80
2023-04-18T10:55:02.128Z,10.65
2023-04-18T10:58:15.986Z,11.50
2023-04-18T10:59:52.855Z,8.23
2023-04-18T11:01:31.623Z,10.98
2023-04-18T11:03:04.880Z,9.60
2023-04-18T11:04:38.144Z,13.43
2023-04-18T11:06:10.330Z,7.85
2023-04-18T11:07:46.288Z,8.93
2023-04-18T11:09:18.427Z,8.65
2023-04-18T11:11:03.317Z,8.93
2023-04-18T11:12:38.149Z,11.23
2023-04-18T11:14:10.996Z,10.48
2023-04-18T11:15:43.189Z,12.85
2023-04-18T11:17:26.470Z,13.10
2023-04-18T11:19:01.408Z,15.43
2023-04-18T11:20:41.405Z,14.63
2023-04-18T11:22:13.988Z,12.95
2023-04-18T11:23:46.192Z,9.10
2023-04-18T11:25:19.821Z,11.30
2023-04-18T11:28:25.399Z,13.35
2023-04-18T11:29:57.874Z,12.85
2023-04-18T11:31:30.061Z,9.47
2023-04-18T11:33:06.885Z,13.35
2023-04-18T11:34:39.112Z,8.88
2023-04-18T11:36:11.245Z,9.48
2023-04-18T11:37:46.016Z,10.20
2023-04-18T11:39:18.888Z,10.27
2023-04-18T11:40:51.543Z,8.43
2023-04-18T11:42:28.833Z,8.48
2023-04-18T11:44:01.986Z,7.50
2023-04-18T11:45:34.240Z,8.25
2023-04-18T11:47:25.508Z,9.00
2023-04-18T11:48:57.713Z,8.05
2023-04-18T11:50:39.069Z,9.80
2023-04-18T11:52:15.315Z,9.95
2023-04-18T11:53:47.418Z,8.50
2023-04-18T11:55:22.195Z,11.90
2023-04-18T11:56:54.324Z,9.30
2023-04-18T11:58:35.728Z,8.73
2023-04-18T12:00:10.330Z,12.32
2023-04-18T12:01:42.554Z,9.63
2023-04-18T12:03:19.091Z,8.07
2023-04-18T12:04:57.806Z,9.52
2023-04-18T12:06:51.157Z,9.27
2023-04-18T12:08:25.777Z,9.05
2023-04-18T12:10:01.298Z,9.30
2023-04-18T12:11:33.412Z,9.23
2023-04-18T12:13:09.269Z,8.52
2023-04-18T14:30:49.664Z,11.38
2023-04-18T14:32:21.864Z,10.70
2023-04-18T14:33:54.001Z,10.63
2023-04-18T14:35:26.127Z,9.55
2023-04-18T14:36:58.255Z,11.23
2023-04-18T14:38:30.384Z,11.02
2023-04-18T14:40:02.429Z,9.35
2023-04-18T14:41:34.607Z,11.63
2023-04-18T14:43:06.724Z,13.70
2023-04-18T14:44:38.863Z,12.70
2023-04-18T14:46:16.735Z,14.20
2023-04-18T14:47:49.238Z,12.20
2023-04-18T14:49:21.459Z,15.07
2023-04-18T14:50:59.964Z,11.93
2023-04-18T14:52:32.047Z,12.48
2023-04-18T14:54:04.184Z,14.45
2023-04-18T14:55:36.921Z,15.70
2023-04-18T14:57:10.514Z,11.75
2023-04-18T14:58:43.349Z,11.05
2023-04-18T15:00:15.902Z,11.40
2023-04-18T15:01:48.157Z,12.33
2023-04-18T15:03:20.475Z,12.38
2023-04-18T15:04:53.712Z,13.80
2023-04-18T15:06:27.158Z,10.77
2023-04-18T15:07:59.235Z,14.02
2023-04-18T15:09:31.367Z,13.32
2023-04-18T15:11:09.453Z,14.63
2023-04-18T15:12:42.977Z,14.15
2023-04-18T15:14:19.226Z,15.73
2023-04-18T15:15:55.771Z,12.85
2023-04-18T15:17:31.494Z,13.77
2023-04-18T15:19:03.618Z,14.70
2023-04-18T15:20:37.448Z,10.23
2023-04-18T15:22:09.690Z,9.73
2023-04-18T15:23:41.944Z,11.45
2023-04-18T15:25:16.974Z,8.48
2023-04-18T15:26:49.082Z,9.70
2023-04-18T15:28:21.187Z,10.48
2023-04-18T15:29:53.790Z,10.77
2023-04-18T15:31:26.627Z,8.32
2023-04-18T15:32:59.303Z,9.70
2023-04-18T15:34:31.766Z,9.88
2023-04-18T15:36:03.998Z,9.30
2023-04-18T15:37:36.123Z,10.30
2023-04-18T15:39:09.519Z,9.82
2023-04-18T15:42:13.557Z,12.88
2023-04-18T15:43:46.095Z,11.73
2023-04-18T15:45:18.939Z,12.43
2023-04-18T15:46:51.380Z,10.10
2023-04-18T15:48:23.450Z,18.58
2023-04-18T15:49:55.529Z,31.60
2023-04-18T15:51:30.801Z,15.32
2023-04-18T15:53:03.015Z,13.30
2023-04-18T15:54:36.070Z,11.75
2023-04-18T15:56:08.622Z,17.05
2023-04-18T15:57:41.935Z,13.87
2023-04-18T15:59:14.110Z,11.63
2023-04-18T16:00:46.676Z,13.07
2023-04-18T16:02:18.959Z,17.92
2023-04-18T16:03:51.235Z,14.27
2023-04-18T16:05:23.494Z,14.48
2023-04-18T16:06:56.261Z,17.48
2023-04-18T16:08:28.367Z,14.32
2023-04-18T16:10:03.140Z,20.15
2023-04-18T16:11:35.384Z,12.35
2023-04-18T16:13:07.564Z,17.13
2023-04-18T16:14:39.716Z,15.00
2023-04-18T16:16:12.035Z,16.83
2023-04-18T16:17:44.285Z,17.08
2023-04-18T16:19:17.516Z,27.80
2023-04-18T16:20:49.979Z,25.00
2023-04-18T16:22:22.314Z,17.53
2023-04-18T16:23:54.543Z,17.05
2023-04-18T16:25:26.927Z,18.15
2023-04-18T16:26:59.018Z,17.67
2023-04-18T16:28:31.289Z,18.48
2023-04-18T16:30:03.838Z,15.68
2023-04-18T16:31:36.035Z,16.35
2023-04-18T16:33:08.251Z,16.23
2023-04-18T16:34:40.384Z,21.17
2023-04-18T16:36:12.609Z,15.93
2023-04-18T16:37:44.717Z,22.40
2023-04-18T16:39:16.967Z,20.75
2023-04-18T16:40:49.117Z,19.58
2023-04-18T16:42:21.281Z,16.83
2023-04-18T16:43:56.490Z,15.55
2023-04-18T16:45:28.756Z,14.80
2023-04-18T16:47:01.242Z,14.23
2023-04-18T16:48:34.383Z,15.05
2023-04-18T16:50:07.825Z,20.38
2023-04-18T16:53:12.515Z,19.88
2023-04-18T16:54:45.014Z,14.07
2023-04-18T16:56:17.134Z,15.20
2023-04-18T16:57:49.245Z,15.32
2023-04-18T16:59:21.344Z,16.80
2023-04-18T17:00:53.703Z,19.30
2023-04-18T17:02:26.094Z,17.73
2023-04-18T17:05:33.626Z,20.58
2023-04-18T17:07:06.006Z,23.77
2023-04-18T17:08:38.199Z,21.10
2023-04-18T17:10:10.913Z,17.92
2023-04-18T17:11:43.117Z,18.38
2023-04-18T17:13:15.222Z,17.10
2023-04-18T17:14:47.492Z,18.25
2023-04-18T17:16:19.899Z,18.65
2023-04-18T17:17:52.231Z,21.80
2023-04-18T17:19:24.552Z,24.80
2023-04-18T17:20:56.840Z,25.08
2023-04-18T17:22:29.964Z,23.83
2023-04-18T17:24:04.254Z,20.58
2023-04-18T17:25:37.074Z,24.23
2023-04-18T17:27:09.309Z,26.27
2023-04-18T17:28:41.436Z,17.75
2023-04-18T17:30:13.735Z,22.90
2023-04-18T17:31:46.027Z,28.70
2023-04-18T17:33:18.269Z,15.00
2023-04-18T17:34:50.422Z,20.60
2023-04-18T17:36:22.698Z,21.73
2023-04-18T17:37:54.844Z,18.70
2023-04-18T17:39:27.418Z,16.60
2023-04-18T17:41:00.956Z,18.55
2023-04-18T17:42:33.394Z,18.08
2023-04-18T17:44:07.971Z,17.33
2023-04-18T17:45:40.461Z,21.15
2023-04-18T17:47:12.636Z,18.40
2023-04-18T17:48:44.926Z,15.95
2023-04-18T17:50:17.871Z,16.08
2023-04-18T17:51:49.975Z,14.63
2023-04-18T17:53:22.706Z,17.92
2023-04-18T17:54:59.495Z,16.52
2023-04-18T17:56:31.868Z,16.23
2023-04-18T17:58:05.616Z,16.75
2023-04-18T17:59:38.274Z,14.60
2023-04-18T18:01:20.294Z,15.88
2023-04-18T18:04:31.431Z,16.50
2023-04-18T18:06:03.767Z,19.25
2023-04-18T18:07:38.631Z,16.15
2023-04-18T18:09:13.187Z,15.57
2023-04-18T18:10:47.198Z,15.43
2023-04-18T18:12:19.338Z,14.68
2023-04-18T18:13:54.918Z,13.20
2023-04-18T18:15:27.120Z,12.63
2023-04-18T18:16:59.312Z,12.35
2023-04-18T18:18:31.864Z,12.15
2023-04-18T18:20:09.218Z,13.37
2023-04-18T18:21:41.820Z,12.82
2023-04-18T18:23:13.883Z,12.82
2023-04-18T18:24:45.996Z,11.02
2023-04-18T18:26:18.151Z,10.52
2023-04-18T18:27:51.773Z,12.55
2023-04-18T18:29:24.124Z,11.18
2023-04-18T18:30:56.241Z,11.25
2023-04-18T18:32:31.150Z,14.45
2023-04-18T18:34:03.387Z,11.50
2023-04-18T18:35:35.544Z,12.43
2023-04-18T18:37:07.771Z,13.68
2023-04-18T18:38:39.869Z,10.88
2023-04-18T18:40:13.122Z,12.85
2023-04-18T18:41:45.244Z,11.68
2023-04-18T18:43:17.391Z,12.63
2023-04-18T18:44:49.481Z,11.93
2023-04-18T18:46:21.700Z,10.45
2023-04-18T18:47:54.091Z,16.85
2023-04-18T18:49:27.027Z,15.85
2023-04-18T18:50:59.172Z,15.38
2023-04-18T18:52:31.834Z,14.80
2023-04-18T18:54:03.942Z,14.53
2023-04-18T18:55:36.094Z,14.55
2023-04-18T18:57:09.061Z,10.55
2023-04-18T18:58:41.521Z,12.30
2023-04-18T19:00:13.977Z,10.05
2023-04-18T19:01:46.065Z,11.83
2023-04-18T19:03:20.073Z,10.45
2023-04-18T19:04:52.497Z,11.15
2023-04-18T19:06:24.716Z,13.18
2023-04-18T19:07:57.612Z,11.90
2023-04-18T19:09:29.753Z,12.70
2023-04-18T19:11:04.623Z,12.57
2023-04-18T19:12:37.996Z,12.20
2023-04-18T19:15:42.193Z,10.98
2023-04-18T19:17:14.306Z,11.00
2023-04-18T19:18:47.716Z,11.02
2023-04-18T19:21:51.956Z,10.07
2023-04-18T19:23:25.608Z,10.60
2023-04-18T19:24:58.906Z,10.80
2023-04-18T19:26:31.131Z,10.13
2023-04-18T19:28:05.284Z,9.70
2023-04-18T19:29:37.419Z,10.18
2023-04-18T19:31:09.997Z,9.23
2023-04-18T19:32:42.784Z,10.82
2023-04-18T19:34:14.872Z,10.32
2023-04-18T19:35:46.938Z,10.15
2023-04-18T19:37:19.161Z,9.98
2023-04-18T19:38:51.347Z,11.45
2023-04-18T19:40:27.016Z,9.32
2023-04-18T19:41:59.094Z,11.90
2023-04-18T19:43:31.172Z,9.70
2023-04-18T19:45:03.745Z,10.75
2023-04-18T19:46:36.088Z,11.68
2023-04-18T19:48:08.240Z,10.10
2023-04-18T19:49:40.403Z,10.35
2023-04-18T19:51:12.628Z,10.13
2023-04-18T19:52:44.800Z,10.50
2023-04-18T19:54:19.176Z,8.98
2023-04-18T19:55:52.498Z,10.45
2023-04-18T19:57:26.189Z,10.15
2023-04-18T19:58:58.509Z,10.95
2023-04-18T20:00:30.652Z,10.65
2023-04-18T20:02:05.716Z,9.82
2023-04-18T20:03:39.715Z,9.90
2023-04-18T20:05:13.265Z,10.25
2023-04-18T20:08:17.850Z,9.73
2023-04-18T20:09:50.016Z,10.07
2023-04-18T20:11:22.684Z,11.13
2023-04-18T20:12:54.785Z,10.52
2023-04-18T20:14:28.527Z,10.93
2023-04-18T20:16:00.866Z,11.40
2023-04-18T20:17:34.977Z,10.80
2023-04-18T20:19:07.441Z,13.25
2023-04-18T20:20:39.657Z,10.07
2023-04-18T20:22:11.726Z,11.00
2023-04-18T20:23:46.274Z,11.30
2023-04-18T20:25:18.488Z,11.82
2023-04-18T20:26:51.781Z,13.27
2023-04-18T20:29:57.297Z,11.60
2023-04-18T20:31:29.667Z,11.25
2023-04-18T20:33:01.856Z,11.88
2023-04-18T20:34:33.981Z,11.35
2023-04-18T20:36:07.121Z,11.50
2023-04-18T20:37:39.691Z,13.10
2023-04-18T20:39:16.161Z,12.47
2023-04-18T20:40:51.959Z,11.15
2023-04-18T20:42:24.013Z,12.00
2023-04-18T20:43:59.100Z,11.52
2023-04-18T20:45:32.284Z,12.55
2023-04-18T20:47:04.329Z,11.50
2023-04-18T20:48:36.510Z,12.70
2023-04-18T20:50:09.309Z,11.65
2023-04-18T20:51:41.623Z,13.18
2023-04-18T20:53:13.729Z,13.98
2023-04-18T20:54:45.954Z,13.63
2023-04-18T20:56:18.068Z,11.77
2023-04-18T20:57:50.177Z,12.88
2023-04-18T20:59:22.327Z,11.30
2023-04-18T21:00:54.345Z,11.55
2023-04-18T21:02:26.802Z,14.15
2023-04-18T21:03:59.150Z,11.65
2023-04-18T21:05:32.676Z,11.93
2023-04-18T21:07:04.787Z,13.05
2023-04-18T21:08:38.322Z,13.07
2023-04-18T21:10:10.808Z,12.07
2023-04-18T21:11:43.012Z,11.20
2023-04-18T21:13:18.202Z,12.82
2023-04-18T21:14:50.369Z,12.35
2023-04-18T21:16:24.258Z,12.32
2023-04-18T21:17:59.078Z,13.30
2023-04-18T21:19:31.292Z,13.45
2023-04-18T21:21:03.666Z,13.05
2023-04-18T21:22:35.810Z,13.77
2023-04-18T21:24:07.950Z,13.52
2023-04-18T21:25:40.158Z,12.18
2023-04-18T21:27:16.291Z,14.90
2023-04-18T21:28:59.238Z,17.17
2023-04-18T21:30:31.389Z,14.00
2023-04-18T21:32:06.295Z,14.30
2023-04-18T21:33:38.375Z,13.57
2023-04-18T21:35:13.900Z,13.95
2023-04-18T21:36:46.115Z,13.77
2023-04-18T21:38:18.282Z,14.80
2023-04-18T21:39:50.349Z,15.25
2023-04-18T21:41:23.125Z,13.13
2023-04-18T21:42:55.272Z,13.07
2023-04-18T21:44:27.508Z,14.23
2023-04-18T21:45:59.696Z,15.25
2023-04-18T21:47:33.478Z,13.20
2023-04-18T21:49:05.575Z,13.60
2023-04-18T21:50:37.691Z,13.65
2023-04-18T21:52:09.850Z,12.80
2023-04-18T21:53:42.509Z,12.80
2023-04-18T21:55:14.732Z,12.63
2023-04-18T21:56:46.888Z,13.75
2023-04-18T21:58:18.981Z,13.10
2023-04-18T21:59:51.130Z,13.93
2023-04-18T22:01:23.244Z,12.93
2023-04-18T22:02:55.592Z,14.20
2023-04-18T22:04:28.106Z,13.63
2023-04-18T22:06:02.482Z,16.75
2023-04-18T22:07:43.334Z,15.00
2023-04-18T22:09:22.976Z,16.15
2023-04-18T22:10:58.432Z,13.93
2023-04-18T22:12:30.546Z,16.08
2023-04-18T22:14:02.591Z,14.82
2023-04-18T22:15:34.775Z,16.33
2023-04-18T22:17:07.166Z,14.80
2023-04-18T22:18:39.267Z,16.27
2023-04-18T22:20:11.963Z,15.27
2023-04-18T22:21:44.040Z,15.63
2023-04-18T22:23:16.146Z,13.38
2023-04-18T22:24:48.620Z,15.05
2023-04-18T22:26:21.032Z,15.60
2023-04-18T22:27:53.067Z,16.60
2023-04-18T22:29:25.103Z,16.58
2023-04-18T22:30:57.223Z,13.70
2023-04-18T22:32:29.571Z,15.27
2023-04-18T22:34:01.665Z,14.57
2023-04-18T22:35:33.887Z,17.13
2023-04-18T22:37:06.892Z,15.10
2023-04-18T22:38:39.063Z,13.55
2023-04-18T22:40:12.081Z,13.32
2023-04-18T22:41:44.200Z,12.15
2023-04-18T22:43:16.562Z,12.10
2023-04-18T22:44:48.624Z,14.93
2023-04-18T22:46:21.289Z,13.93
2023-04-18T22:47:53.858Z,13.32
2023-04-18T22:49:26.564Z,13.80
2023-04-18T22:51:02.158Z,13.93